Ana Sayfa
METAR-TAF:

METAR-TAF

Havaalanları :

Kadala Havalimanı

Çita, Rusya

Enlem: 52-05N, Boylam: 113-29E, yükseklik: 685 m

Güncel hava durumu gözlemi

Rapor saat 05:00 UTC de 24 dakika önce yapıldı.
Rüzgar değişken yönden 2 kt
Sıcaklık 17°C
Nem 32%
Basınç 1017 hPa
Görüş mesafesi 10 km veya daha fazla

METAR: UIAA 250500Z VRB01MPS 9999 NSC 17/00 Q1017 R29/CLRD70 NOSIG RMK QFE704/0939

Saat: 14:24 (05:24 UTC)

Tahmin

Rapor saat 02:00 UTC de 3 saat ve 24 dakika önce yapıldı.
Ayın 25'si saat 03 UTC'den ayın 26'si saat 03 UTC'ye kadar geçerli Tahmin
Rüzgar doğudan 6 kt ve 16 kt'a kadar ani rüzgarlar
Görüş mesafesi 10 km veya daha fazla
4000 ft yükseklikte parçalı bulutlu, Kümülonimbus.

TAF: UIAA 250200Z 2503/2603 10003G08MPS 9999 SCT040CB

4.000'den fazla havaalanı için hava durumu gözlemleri ve tahminleri (METAR ve TAF raporları).

Kullanılabilir istasyonlar harita üzerinde sarı ve kırmızı noktalarla gösterilir.

İstasyonun adını görmek için fareyi noktanın üzerinde gezdirin.

Sonrasında hava gözlem ve tahminlerini görmek için tıklayın.

Haritayı değiştirmek için: yaklaştırmak için siyah artı işaretli yeşil düğmeye ve uzaklaştırmak için de eksi işaretli düğmeye hızla tıklayın; bitişik haritalar için yeşil okları kullanın.


METAR-TAF: